sensor_id;sensor_type;location;lat;lon;timestamp;P1;durP1;ratioP1;P2;durP2;ratioP2
80270;SDS011;69573;45.560;10.200;2023-08-06T00:02:06;1.73;;;1.63;;
80270;SDS011;69573;45.560;10.200;2023-08-06T00:04:33;2.13;;;1.70;;
80270;SDS011;69573;45.560;10.200;2023-08-06T00:06:59;4.50;;;1.58;;
80270;SDS011;69573;45.560;10.200;2023-08-06T00:09:26;2.55;;;1.77;;
80270;SDS011;69573;45.560;10.200;2023-08-06T00:11:52;1.85;;;1.75;;
80270;SDS011;69573;45.560;10.200;2023-08-06T00:14:19;1.60;;;1.50;;
80270;SDS011;69573;45.560;10.200;2023-08-06T00:16:46;3.65;;;1.80;;
80270;SDS011;69573;45.560;10.200;2023-08-06T00:19:12;3.03;;;1.58;;
80270;SDS011;69573;45.560;10.200;2023-08-06T00:21:38;3.95;;;2.00;;
80270;SDS011;69573;45.560;10.200;2023-08-06T00:24:05;2.17;;;1.77;;
80270;SDS011;69573;45.560;10.200;2023-08-06T00:26:31;3.60;;;1.70;;
80270;SDS011;69573;45.560;10.200;2023-08-06T00:28:57;2.60;;;1.77;;
80270;SDS011;69573;45.560;10.200;2023-08-06T00:31:24;1.98;;;1.73;;
80270;SDS011;69573;45.560;10.200;2023-08-06T00:33:50;6.60;;;1.60;;
80270;SDS011;69573;45.560;10.200;2023-08-06T00:36:17;1.92;;;1.70;;
80270;SDS011;69573;45.560;10.200;2023-08-06T00:38:44;3.03;;;1.58;;
80270;SDS011;69573;45.560;10.200;2023-08-06T00:41:10;1.83;;;1.70;;
80270;SDS011;69573;45.560;10.200;2023-08-06T00:43:36;2.95;;;1.70;;
80270;SDS011;69573;45.560;10.200;2023-08-06T00:46:03;3.22;;;1.80;;
80270;SDS011;69573;45.560;10.200;2023-08-06T00:48:29;1.70;;;1.60;;
80270;SDS011;69573;45.560;10.200;2023-08-06T00:50:56;2.00;;;1.80;;
80270;SDS011;69573;45.560;10.200;2023-08-06T00:53:22;2.05;;;1.80;;
80270;SDS011;69573;45.560;10.200;2023-08-06T00:55:49;3.40;;;1.67;;
80270;SDS011;69573;45.560;10.200;2023-08-06T00:58:16;2.67;;;1.80;;
80270;SDS011;69573;45.560;10.200;2023-08-06T01:00:42;2.80;;;1.70;;
80270;SDS011;69573;45.560;10.200;2023-08-06T01:03:09;3.10;;;1.65;;
80270;SDS011;69573;45.560;10.200;2023-08-06T01:05:35;2.28;;;1.70;;
80270;SDS011;69573;45.560;10.200;2023-08-06T01:13:18;1.85;;;1.70;;
80270;SDS011;69573;45.560;10.200;2023-08-06T01:15:46;5.13;;;1.70;;
80270;SDS011;69573;45.560;10.200;2023-08-06T01:18:12;2.10;;;1.70;;
80270;SDS011;69573;45.560;10.200;2023-08-06T01:20:38;2.58;;;1.60;;
80270;SDS011;69573;45.560;10.200;2023-08-06T01:23:05;1.80;;;1.70;;
80270;SDS011;69573;45.560;10.200;2023-08-06T01:25:35;4.03;;;2.03;;
80270;SDS011;69573;45.560;10.200;2023-08-06T01:28:06;4.25;;;1.88;;
80270;SDS011;69573;45.560;10.200;2023-08-06T01:30:34;6.05;;;1.77;;
80270;SDS011;69573;45.560;10.200;2023-08-06T01:33:04;1.73;;;1.60;;
80270;SDS011;69573;45.560;10.200;2023-08-06T01:35:31;4.47;;;1.60;;
80270;SDS011;69573;45.560;10.200;2023-08-06T01:37:59;4.10;;;1.42;;
80270;SDS011;69573;45.560;10.200;2023-08-06T01:40:25;2.50;;;1.55;;
80270;SDS011;69573;45.560;10.200;2023-08-06T01:42:53;2.17;;;1.50;;
80270;SDS011;69573;45.560;10.200;2023-08-06T01:45:20;3.35;;;1.70;;
80270;SDS011;69573;45.560;10.200;2023-08-06T01:47:46;1.80;;;1.70;;
80270;SDS011;69573;45.560;10.200;2023-08-06T01:50:13;1.60;;;1.50;;
80270;SDS011;69573;45.560;10.200;2023-08-06T01:52:40;1.40;;;1.30;;
80270;SDS011;69573;45.560;10.200;2023-08-06T01:55:06;1.83;;;1.73;;
80270;SDS011;69573;45.560;10.200;2023-08-06T01:57:34;1.90;;;1.80;;
80270;SDS011;69573;45.560;10.200;2023-08-06T02:00:00;1.83;;;1.70;;
80270;SDS011;69573;45.560;10.200;2023-08-06T02:02:27;1.60;;;1.50;;
80270;SDS011;69573;45.560;10.200;2023-08-06T02:04:53;3.20;;;2.17;;
80270;SDS011;69573;45.560;10.200;2023-08-06T02:07:20;1.73;;;1.63;;
80270;SDS011;69573;45.560;10.200;2023-08-06T02:09:47;2.47;;;1.60;;
80270;SDS011;69573;45.560;10.200;2023-08-06T02:12:13;2.67;;;1.75;;
80270;SDS011;69573;45.560;10.200;2023-08-06T02:14:40;2.78;;;1.50;;
80270;SDS011;69573;45.560;10.200;2023-08-06T02:17:06;3.17;;;2.35;;
80270;SDS011;69573;45.560;10.200;2023-08-06T02:19:33;3.05;;;2.85;;
80270;SDS011;69573;45.560;10.200;2023-08-06T02:21:59;4.78;;;4.25;;
80270;SDS011;69573;45.560;10.200;2023-08-06T02:24:27;5.70;;;5.20;;
80270;SDS011;69573;45.560;10.200;2023-08-06T02:26:54;5.22;;;3.80;;
80270;SDS011;69573;45.560;10.200;2023-08-06T02:29:21;3.28;;;3.08;;
80270;SDS011;69573;45.560;10.200;2023-08-06T02:31:47;4.70;;;2.78;;
80270;SDS011;69573;45.560;10.200;2023-08-06T02:34:13;5.88;;;2.20;;
80270;SDS011;69573;45.560;10.200;2023-08-06T02:36:40;2.67;;;2.30;;
80270;SDS011;69573;45.560;10.200;2023-08-06T02:39:06;2.47;;;2.25;;
80270;SDS011;69573;45.560;10.200;2023-08-06T02:41:33;2.80;;;1.70;;
80270;SDS011;69573;45.560;10.200;2023-08-06T02:43:59;3.45;;;1.80;;
80270;SDS011;69573;45.560;10.200;2023-08-06T02:46:25;1.80;;;1.70;;
80270;SDS011;69573;45.560;10.200;2023-08-06T02:48:51;2.88;;;1.73;;
80270;SDS011;69573;45.560;10.200;2023-08-06T02:51:18;2.95;;;1.70;;
80270;SDS011;69573;45.560;10.200;2023-08-06T02:53:44;4.63;;;1.70;;
80270;SDS011;69573;45.560;10.200;2023-08-06T02:56:11;2.40;;;1.77;;
80270;SDS011;69573;45.560;10.200;2023-08-06T02:58:37;2.42;;;1.67;;
80270;SDS011;69573;45.560;10.200;2023-08-06T03:01:04;2.20;;;1.60;;
80270;SDS011;69573;45.560;10.200;2023-08-06T03:03:32;3.15;;;1.98;;
80270;SDS011;69573;45.560;10.200;2023-08-06T03:05:58;1.83;;;1.73;;
80270;SDS011;69573;45.560;10.200;2023-08-06T03:08:25;1.60;;;1.50;;
80270;SDS011;69573;45.560;10.200;2023-08-06T03:10:51;2.15;;;1.40;;
80270;SDS011;69573;45.560;10.200;2023-08-06T03:13:17;2.28;;;1.73;;
80270;SDS011;69573;45.560;10.200;2023-08-06T03:15:51;2.35;;;1.92;;
80270;SDS011;69573;45.560;10.200;2023-08-06T03:18:17;2.40;;;1.60;;
80270;SDS011;69573;45.560;10.200;2023-08-06T03:20:44;1.83;;;1.60;;
80270;SDS011;69573;45.560;10.200;2023-08-06T03:23:10;3.33;;;1.85;;
80270;SDS011;69573;45.560;10.200;2023-08-06T03:25:37;1.80;;;1.48;;
80270;SDS011;69573;45.560;10.200;2023-08-06T03:28:04;1.63;;;1.52;;
80270;SDS011;69573;45.560;10.200;2023-08-06T03:30:30;5.25;;;1.83;;
80270;SDS011;69573;45.560;10.200;2023-08-06T03:32:57;2.67;;;1.77;;
80270;SDS011;69573;45.560;10.200;2023-08-06T03:35:23;3.20;;;1.90;;
80270;SDS011;69573;45.560;10.200;2023-08-06T03:37:49;4.35;;;1.60;;
80270;SDS011;69573;45.560;10.200;2023-08-06T03:40:16;1.90;;;1.70;;
80270;SDS011;69573;45.560;10.200;2023-08-06T03:42:42;2.70;;;1.75;;
80270;SDS011;69573;45.560;10.200;2023-08-06T03:45:09;2.47;;;2.00;;
80270;SDS011;69573;45.560;10.200;2023-08-06T03:47:35;2.63;;;1.90;;
80270;SDS011;69573;45.560;10.200;2023-08-06T03:50:02;5.38;;;1.73;;
80270;SDS011;69573;45.560;10.200;2023-08-06T03:52:28;2.53;;;1.70;;
80270;SDS011;69573;45.560;10.200;2023-08-06T03:54:55;1.83;;;1.73;;
80270;SDS011;69573;45.560;10.200;2023-08-06T03:57:21;2.30;;;1.67;;
80270;SDS011;69573;45.560;10.200;2023-08-06T03:59:48;2.78;;;2.10;;
80270;SDS011;69573;45.560;10.200;2023-08-06T04:02:14;2.20;;;1.75;;
80270;SDS011;69573;45.560;10.200;2023-08-06T04:04:41;3.22;;;1.90;;
80270;SDS011;69573;45.560;10.200;2023-08-06T04:07:07;2.33;;;1.88;;
80270;SDS011;69573;45.560;10.200;2023-08-06T04:09:34;2.92;;;1.80;;
80270;SDS011;69573;45.560;10.200;2023-08-06T04:12:01;2.95;;;2.30;;
80270;SDS011;69573;45.560;10.200;2023-08-06T04:14:29;1.70;;;1.60;;
80270;SDS011;69573;45.560;10.200;2023-08-06T04:16:55;1.98;;;1.60;;
80270;SDS011;69573;45.560;10.200;2023-08-06T04:19:22;1.80;;;1.70;;
80270;SDS011;69573;45.560;10.200;2023-08-06T04:21:49;3.08;;;1.75;;
80270;SDS011;69573;45.560;10.200;2023-08-06T04:24:16;1.95;;;1.80;;
80270;SDS011;69573;45.560;10.200;2023-08-06T04:26:42;2.05;;;1.90;;
80270;SDS011;69573;45.560;10.200;2023-08-06T04:29:09;1.77;;;1.67;;
80270;SDS011;69573;45.560;10.200;2023-08-06T04:31:35;3.03;;;1.73;;
80270;SDS011;69573;45.560;10.200;2023-08-06T04:34:01;1.88;;;1.75;;
80270;SDS011;69573;45.560;10.200;2023-08-06T04:36:28;3.55;;;1.92;;
80270;SDS011;69573;45.560;10.200;2023-08-06T04:38:54;2.10;;;1.70;;
80270;SDS011;69573;45.560;10.200;2023-08-06T04:41:20;1.92;;;1.73;;
80270;SDS011;69573;45.560;10.200;2023-08-06T04:43:47;2.10;;;1.90;;
80270;SDS011;69573;45.560;10.200;2023-08-06T04:46:14;1.80;;;1.70;;
80270;SDS011;69573;45.560;10.200;2023-08-06T04:48:40;1.73;;;1.63;;
80270;SDS011;69573;45.560;10.200;2023-08-06T04:51:07;1.70;;;1.60;;
80270;SDS011;69573;45.560;10.200;2023-08-06T04:53:33;2.22;;;1.58;;
80270;SDS011;69573;45.560;10.200;2023-08-06T04:55:59;3.60;;;2.00;;
80270;SDS011;69573;45.560;10.200;2023-08-06T04:58:25;2.13;;;1.77;;
80270;SDS011;69573;45.560;10.200;2023-08-06T05:00:52;4.90;;;1.90;;
80270;SDS011;69573;45.560;10.200;2023-08-06T05:03:19;2.30;;;2.10;;
80270;SDS011;69573;45.560;10.200;2023-08-06T05:05:45;2.55;;;1.70;;
80270;SDS011;69573;45.560;10.200;2023-08-06T05:08:15;1.90;;;1.80;;
80270;SDS011;69573;45.560;10.200;2023-08-06T05:10:44;2.50;;;1.58;;
80270;SDS011;69573;45.560;10.200;2023-08-06T05:13:11;1.88;;;1.77;;
80270;SDS011;69573;45.560;10.200;2023-08-06T05:15:37;1.77;;;1.65;;
80270;SDS011;69573;45.560;10.200;2023-08-06T05:18:05;1.70;;;1.60;;
80270;SDS011;69573;45.560;10.200;2023-08-06T05:20:35;2.28;;;1.80;;
80270;SDS011;69573;45.560;10.200;2023-08-06T05:23:02;2.55;;;1.92;;
80270;SDS011;69573;45.560;10.200;2023-08-06T05:25:29;2.90;;;1.77;;
80270;SDS011;69573;45.560;10.200;2023-08-06T05:27:56;1.60;;;1.50;;
80270;SDS011;69573;45.560;10.200;2023-08-06T05:30:22;2.15;;;1.48;;
80270;SDS011;69573;45.560;10.200;2023-08-06T05:32:49;1.80;;;1.70;;
80270;SDS011;69573;45.560;10.200;2023-08-06T05:35:15;2.10;;;1.63;;
80270;SDS011;69573;45.560;10.200;2023-08-06T05:37:42;1.92;;;1.67;;
80270;SDS011;69573;45.560;10.200;2023-08-06T05:40:08;2.33;;;1.90;;
80270;SDS011;69573;45.560;10.200;2023-08-06T05:42:35;2.50;;;2.30;;
80270;SDS011;69573;45.560;10.200;2023-08-06T05:45:01;1.92;;;1.83;;
80270;SDS011;69573;45.560;10.200;2023-08-06T05:47:28;1.85;;;1.75;;
80270;SDS011;69573;45.560;10.200;2023-08-06T05:49:54;2.45;;;2.00;;
80270;SDS011;69573;45.560;10.200;2023-08-06T05:52:21;2.40;;;1.98;;
80270;SDS011;69573;45.560;10.200;2023-08-06T05:54:47;2.92;;;1.83;;
80270;SDS011;69573;45.560;10.200;2023-08-06T05:57:15;1.80;;;1.70;;
80270;SDS011;69573;45.560;10.200;2023-08-06T05:59:41;2.40;;;1.83;;
80270;SDS011;69573;45.560;10.200;2023-08-06T06:02:08;2.05;;;1.75;;
80270;SDS011;69573;45.560;10.200;2023-08-06T06:04:34;1.60;;;1.50;;
80270;SDS011;69573;45.560;10.200;2023-08-06T06:07:00;2.90;;;1.65;;
80270;SDS011;69573;45.560;10.200;2023-08-06T06:09:27;1.70;;;1.60;;
80270;SDS011;69573;45.560;10.200;2023-08-06T06:11:53;2.30;;;1.60;;
80270;SDS011;69573;45.560;10.200;2023-08-06T06:14:20;1.70;;;1.60;;
80270;SDS011;69573;45.560;10.200;2023-08-06T06:16:46;2.13;;;1.83;;
80270;SDS011;69573;45.560;10.200;2023-08-06T06:19:12;1.55;;;1.45;;
80270;SDS011;69573;45.560;10.200;2023-08-06T06:21:39;1.60;;;1.50;;
80270;SDS011;69573;45.560;10.200;2023-08-06T06:24:06;2.65;;;1.90;;
80270;SDS011;69573;45.560;10.200;2023-08-06T06:26:33;2.85;;;1.63;;
80270;SDS011;69573;45.560;10.200;2023-08-06T06:28:59;3.55;;;1.83;;
80270;SDS011;69573;45.560;10.200;2023-08-06T06:31:26;1.58;;;1.48;;
80270;SDS011;69573;45.560;10.200;2023-08-06T06:33:53;4.15;;;1.80;;
80270;SDS011;69573;45.560;10.200;2023-08-06T06:36:19;2.88;;;1.67;;
80270;SDS011;69573;45.560;10.200;2023-08-06T06:38:46;2.65;;;1.45;;
80270;SDS011;69573;45.560;10.200;2023-08-06T06:41:14;3.67;;;1.75;;
80270;SDS011;69573;45.560;10.200;2023-08-06T06:43:40;1.85;;;1.70;;
80270;SDS011;69573;45.560;10.200;2023-08-06T06:46:07;1.92;;;1.70;;
80270;SDS011;69573;45.560;10.200;2023-08-06T06:48:33;3.55;;;1.70;;
80270;SDS011;69573;45.560;10.200;2023-08-06T06:50:59;2.05;;;1.75;;
80270;SDS011;69573;45.560;10.200;2023-08-06T06:53:26;1.58;;;1.48;;
80270;SDS011;69573;45.560;10.200;2023-08-06T06:55:55;3.38;;;1.65;;
80270;SDS011;69573;45.560;10.200;2023-08-06T06:58:22;3.17;;;1.60;;
80270;SDS011;69573;45.560;10.200;2023-08-06T07:00:48;2.00;;;1.75;;
80270;SDS011;69573;45.560;10.200;2023-08-06T07:03:15;1.70;;;1.60;;
80270;SDS011;69573;45.560;10.200;2023-08-06T07:05:41;2.65;;;1.75;;
80270;SDS011;69573;45.560;10.200;2023-08-06T07:08:08;2.60;;;2.40;;
80270;SDS011;69573;45.560;10.200;2023-08-06T07:10:34;1.80;;;1.70;;
80270;SDS011;69573;45.560;10.200;2023-08-06T07:13:01;3.15;;;1.75;;
80270;SDS011;69573;45.560;10.200;2023-08-06T07:15:27;1.67;;;1.58;;
80270;SDS011;69573;45.560;10.200;2023-08-06T07:17:54;1.75;;;1.65;;
80270;SDS011;69573;45.560;10.200;2023-08-06T07:20:20;1.67;;;1.58;;
80270;SDS011;69573;45.560;10.200;2023-08-06T07:22:47;3.10;;;1.95;;
80270;SDS011;69573;45.560;10.200;2023-08-06T07:25:13;2.08;;;1.98;;
80270;SDS011;69573;45.560;10.200;2023-08-06T07:27:39;2.17;;;1.98;;
80270;SDS011;69573;45.560;10.200;2023-08-06T07:30:06;2.42;;;2.22;;
80270;SDS011;69573;45.560;10.200;2023-08-06T07:32:33;3.45;;;2.42;;
80270;SDS011;69573;45.560;10.200;2023-08-06T07:34:59;2.80;;;2.60;;
80270;SDS011;69573;45.560;10.200;2023-08-06T07:37:27;2.85;;;2.13;;
80270;SDS011;69573;45.560;10.200;2023-08-06T07:39:54;2.90;;;2.30;;
80270;SDS011;69573;45.560;10.200;2023-08-06T07:42:20;3.45;;;2.42;;
80270;SDS011;69573;45.560;10.200;2023-08-06T07:44:51;3.22;;;3.00;;
80270;SDS011;69573;45.560;10.200;2023-08-06T07:47:19;5.15;;;3.20;;
80270;SDS011;69573;45.560;10.200;2023-08-06T07:49:45;2.63;;;2.42;;
80270;SDS011;69573;45.560;10.200;2023-08-06T07:52:11;3.05;;;2.78;;
80270;SDS011;69573;45.560;10.200;2023-08-06T07:54:37;3.50;;;3.20;;
80270;SDS011;69573;45.560;10.200;2023-08-06T07:57:04;4.05;;;3.50;;
80270;SDS011;69573;45.560;10.200;2023-08-06T07:59:30;4.50;;;3.38;;
80270;SDS011;69573;45.560;10.200;2023-08-06T08:01:56;4.10;;;3.70;;
80270;SDS011;69573;45.560;10.200;2023-08-06T08:04:23;4.00;;;3.67;;
80270;SDS011;69573;45.560;10.200;2023-08-06T08:06:49;3.83;;;3.42;;
80270;SDS011;69573;45.560;10.200;2023-08-06T08:09:16;4.20;;;3.85;;
80270;SDS011;69573;45.560;10.200;2023-08-06T08:11:43;4.22;;;3.10;;
80270;SDS011;69573;45.560;10.200;2023-08-06T08:14:09;3.28;;;2.90;;
80270;SDS011;69573;45.560;10.200;2023-08-06T08:16:35;3.50;;;3.20;;
80270;SDS011;69573;45.560;10.200;2023-08-06T08:19:01;3.28;;;2.63;;
80270;SDS011;69573;45.560;10.200;2023-08-06T08:21:29;3.05;;;2.65;;
80270;SDS011;69573;45.560;10.200;2023-08-06T08:23:55;3.97;;;3.00;;
80270;SDS011;69573;45.560;10.200;2023-08-06T08:26:22;2.97;;;2.67;;
80270;SDS011;69573;45.560;10.200;2023-08-06T08:28:48;3.35;;;3.05;;
80270;SDS011;69573;45.560;10.200;2023-08-06T08:31:14;4.90;;;2.42;;
80270;SDS011;69573;45.560;10.200;2023-08-06T08:33:41;2.97;;;2.70;;
80270;SDS011;69573;45.560;10.200;2023-08-06T08:36:08;2.65;;;2.45;;
80270;SDS011;69573;45.560;10.200;2023-08-06T08:38:35;4.20;;;2.40;;
80270;SDS011;69573;45.560;10.200;2023-08-06T08:41:01;3.70;;;3.33;;
80270;SDS011;69573;45.560;10.200;2023-08-06T08:43:28;3.83;;;3.00;;
80270;SDS011;69573;45.560;10.200;2023-08-06T08:45:55;2.90;;;2.30;;
80270;SDS011;69573;45.560;10.200;2023-08-06T08:48:24;3.05;;;2.75;;
80270;SDS011;69573;45.560;10.200;2023-08-06T08:50:51;3.30;;;3.00;;
80270;SDS011;69573;45.560;10.200;2023-08-06T08:53:18;3.13;;;2.70;;
80270;SDS011;69573;45.560;10.200;2023-08-06T08:55:47;3.95;;;2.78;;
80270;SDS011;69573;45.560;10.200;2023-08-06T08:58:14;3.33;;;2.55;;
80270;SDS011;69573;45.560;10.200;2023-08-06T09:00:43;5.28;;;3.00;;
80270;SDS011;69573;45.560;10.200;2023-08-06T09:03:11;2.80;;;2.53;;
80270;SDS011;69573;45.560;10.200;2023-08-06T09:05:38;2.55;;;2.35;;
80270;SDS011;69573;45.560;10.200;2023-08-06T09:08:07;2.55;;;1.88;;
80270;SDS011;69573;45.560;10.200;2023-08-06T09:10:36;2.20;;;2.00;;
80270;SDS011;69573;45.560;10.200;2023-08-06T09:13:05;2.17;;;1.90;;
80270;SDS011;69573;45.560;10.200;2023-08-06T09:15:31;2.55;;;2.28;;
80270;SDS011;69573;45.560;10.200;2023-08-06T09:17:58;3.30;;;2.53;;
80270;SDS011;69573;45.560;10.200;2023-08-06T09:20:24;2.60;;;2.10;;
80270;SDS011;69573;45.560;10.200;2023-08-06T09:22:54;1.58;;;1.48;;
80270;SDS011;69573;45.560;10.200;2023-08-06T09:25:22;1.70;;;1.60;;
80270;SDS011;69573;45.560;10.200;2023-08-06T09:27:49;2.35;;;1.73;;
80270;SDS011;69573;45.560;10.200;2023-08-06T09:30:34;2.45;;;1.70;;
80270;SDS011;69573;45.560;10.200;2023-08-06T09:33:00;2.28;;;2.15;;
80270;SDS011;69573;45.560;10.200;2023-08-06T09:35:30;2.45;;;1.60;;
80270;SDS011;69573;45.560;10.200;2023-08-06T09:38:08;1.70;;;1.50;;
80270;SDS011;69573;45.560;10.200;2023-08-06T09:40:35;2.33;;;1.83;;
80270;SDS011;69573;45.560;10.200;2023-08-06T09:43:02;2.20;;;1.70;;
80270;SDS011;69573;45.560;10.200;2023-08-06T09:45:35;2.42;;;2.08;;
80270;SDS011;69573;45.560;10.200;2023-08-06T09:48:05;1.80;;;1.58;;
80270;SDS011;69573;45.560;10.200;2023-08-06T09:50:32;1.65;;;1.55;;
80270;SDS011;69573;45.560;10.200;2023-08-06T09:52:59;1.88;;;1.75;;
80270;SDS011;69573;45.560;10.200;2023-08-06T09:55:25;2.33;;;1.60;;
80270;SDS011;69573;45.560;10.200;2023-08-06T09:57:52;1.90;;;1.80;;
80270;SDS011;69573;45.560;10.200;2023-08-06T10:00:18;1.55;;;1.45;;
80270;SDS011;69573;45.560;10.200;2023-08-06T10:02:45;2.85;;;1.27;;
80270;SDS011;69573;45.560;10.200;2023-08-06T10:05:11;1.58;;;1.42;;
80270;SDS011;69573;45.560;10.200;2023-08-06T10:07:37;1.77;;;1.45;;
80270;SDS011;69573;45.560;10.200;2023-08-06T10:10:04;2.55;;;1.98;;
80270;SDS011;69573;45.560;10.200;2023-08-06T10:12:34;1.65;;;1.55;;
80270;SDS011;69573;45.560;10.200;2023-08-06T10:15:03;1.30;;;1.23;;
80270;SDS011;69573;45.560;10.200;2023-08-06T10:17:30;1.27;;;1.17;;
80270;SDS011;69573;45.560;10.200;2023-08-06T10:19:58;1.23;;;1.02;;
80270;SDS011;69573;45.560;10.200;2023-08-06T10:22:25;2.67;;;1.20;;
80270;SDS011;69573;45.560;10.200;2023-08-06T10:24:53;1.00;;;1.00;;
80270;SDS011;69573;45.560;10.200;2023-08-06T10:27:27;1.08;;;1.02;;
80270;SDS011;69573;45.560;10.200;2023-08-06T10:29:54;0.90;;;0.90;;
80270;SDS011;69573;45.560;10.200;2023-08-06T10:32:20;1.88;;;1.20;;
80270;SDS011;69573;45.560;10.200;2023-08-06T10:34:57;1.17;;;1.08;;
80270;SDS011;69573;45.560;10.200;2023-08-06T10:37:44;2.97;;;0.90;;
80270;SDS011;69573;45.560;10.200;2023-08-06T10:40:10;1.52;;;1.02;;
80270;SDS011;69573;45.560;10.200;2023-08-06T10:42:36;1.10;;;1.00;;
80270;SDS011;69573;45.560;10.200;2023-08-06T10:45:13;1.10;;;1.00;;
80270;SDS011;69573;45.560;10.200;2023-08-06T10:47:40;1.48;;;1.10;;
80270;SDS011;69573;45.560;10.200;2023-08-06T10:50:15;1.52;;;1.42;;
80270;SDS011;69573;45.560;10.200;2023-08-06T10:52:45;1.00;;;0.90;;
80270;SDS011;69573;45.560;10.200;2023-08-06T10:57:38;0.90;;;0.90;;
80270;SDS011;69573;45.560;10.200;2023-08-06T11:00:04;1.08;;;0.90;;
80270;SDS011;69573;45.560;10.200;2023-08-06T11:02:34;1.25;;;1.15;;
80270;SDS011;69573;45.560;10.200;2023-08-06T11:07:29;1.75;;;1.00;;
80270;SDS011;69573;45.560;10.200;2023-08-06T11:10:05;1.08;;;1.00;;
80270;SDS011;69573;45.560;10.200;2023-08-06T11:12:32;2.00;;;0.90;;
80270;SDS011;69573;45.560;10.200;2023-08-06T11:14:59;1.13;;;1.10;;
80270;SDS011;69573;45.560;10.200;2023-08-06T11:17:28;1.20;;;0.80;;
80270;SDS011;69573;45.560;10.200;2023-08-06T11:19:55;0.60;;;0.60;;
80270;SDS011;69573;45.560;10.200;2023-08-06T11:22:21;0.85;;;0.80;;
80270;SDS011;69573;45.560;10.200;2023-08-06T11:24:48;0.70;;;0.70;;
80270;SDS011;69573;45.560;10.200;2023-08-06T11:27:15;0.47;;;0.47;;
80270;SDS011;69573;45.560;10.200;2023-08-06T11:29:41;0.70;;;0.70;;
80270;SDS011;69573;45.560;10.200;2023-08-06T11:32:08;1.85;;;0.75;;
80270;SDS011;69573;45.560;10.200;2023-08-06T11:34:34;0.65;;;0.65;;
80270;SDS011;69573;45.560;10.200;2023-08-06T11:37:02;0.70;;;0.70;;
80270;SDS011;69573;45.560;10.200;2023-08-06T11:39:30;0.88;;;0.80;;
80270;SDS011;69573;45.560;10.200;2023-08-06T11:41:57;1.00;;;1.00;;
80270;SDS011;69573;45.560;10.200;2023-08-06T11:44:25;0.80;;;0.80;;
80270;SDS011;69573;45.560;10.200;2023-08-06T11:46:52;0.80;;;0.80;;
80270;SDS011;69573;45.560;10.200;2023-08-06T11:49:43;1.55;;;1.00;;
80270;SDS011;69573;45.560;10.200;2023-08-06T11:52:10;1.45;;;1.02;;
80270;SDS011;69573;45.560;10.200;2023-08-06T11:54:37;1.48;;;1.02;;
80270;SDS011;69573;45.560;10.200;2023-08-06T11:57:04;1.05;;;1.00;;
80270;SDS011;69573;45.560;10.200;2023-08-06T11:59:31;0.80;;;0.80;;
80270;SDS011;69573;45.560;10.200;2023-08-06T12:01:57;0.70;;;0.70;;
80270;SDS011;69573;45.560;10.200;2023-08-06T12:04:24;0.70;;;0.70;;
80270;SDS011;69573;45.560;10.200;2023-08-06T12:06:50;0.80;;;0.60;;
80270;SDS011;69573;45.560;10.200;2023-08-06T12:09:16;0.60;;;0.60;;
80270;SDS011;69573;45.560;10.200;2023-08-06T12:11:43;0.90;;;0.73;;
80270;SDS011;69573;45.560;10.200;2023-08-06T12:14:09;0.98;;;0.70;;
80270;SDS011;69573;45.560;10.200;2023-08-06T12:16:36;0.70;;;0.70;;
80270;SDS011;69573;45.560;10.200;2023-08-06T12:19:03;0.60;;;0.60;;
80270;SDS011;69573;45.560;10.200;2023-08-06T12:21:29;0.70;;;0.70;;
80270;SDS011;69573;45.560;10.200;2023-08-06T12:23:55;0.88;;;0.60;;
80270;SDS011;69573;45.560;10.200;2023-08-06T12:26:22;0.60;;;0.60;;
80270;SDS011;69573;45.560;10.200;2023-08-06T12:28:48;0.73;;;0.70;;
80270;SDS011;69573;45.560;10.200;2023-08-06T12:31:15;0.60;;;0.60;;
80270;SDS011;69573;45.560;10.200;2023-08-06T12:33:42;0.60;;;0.60;;
80270;SDS011;69573;45.560;10.200;2023-08-06T12:36:08;0.50;;;0.50;;
80270;SDS011;69573;45.560;10.200;2023-08-06T12:38:34;1.20;;;0.50;;
80270;SDS011;69573;45.560;10.200;2023-08-06T12:41:01;0.57;;;0.57;;
80270;SDS011;69573;45.560;10.200;2023-08-06T12:43:27;0.52;;;0.52;;
80270;SDS011;69573;45.560;10.200;2023-08-06T12:45:54;2.72;;;0.60;;
80270;SDS011;69573;45.560;10.200;2023-08-06T12:48:20;1.80;;;0.70;;
80270;SDS011;69573;45.560;10.200;2023-08-06T12:50:46;1.27;;;0.55;;
80270;SDS011;69573;45.560;10.200;2023-08-06T12:53:14;1.92;;;0.50;;
80270;SDS011;69573;45.560;10.200;2023-08-06T12:55:41;0.47;;;0.40;;
80270;SDS011;69573;45.560;10.200;2023-08-06T12:58:07;0.50;;;0.50;;
80270;SDS011;69573;45.560;10.200;2023-08-06T13:00:33;2.05;;;0.60;;
80270;SDS011;69573;45.560;10.200;2023-08-06T13:03:00;0.70;;;0.70;;
80270;SDS011;69573;45.560;10.200;2023-08-06T13:05:26;0.80;;;0.60;;
80270;SDS011;69573;45.560;10.200;2023-08-06T13:07:53;0.90;;;0.70;;
80270;SDS011;69573;45.560;10.200;2023-08-06T13:10:19;0.60;;;0.60;;
80270;SDS011;69573;45.560;10.200;2023-08-06T13:12:46;0.50;;;0.50;;
80270;SDS011;69573;45.560;10.200;2023-08-06T13:15:12;1.25;;;0.60;;
80270;SDS011;69573;45.560;10.200;2023-08-06T13:17:39;0.60;;;0.60;;
80270;SDS011;69573;45.560;10.200;2023-08-06T13:20:06;2.92;;;0.60;;
80270;SDS011;69573;45.560;10.200;2023-08-06T13:22:32;0.68;;;0.60;;
80270;SDS011;69573;45.560;10.200;2023-08-06T13:24:59;0.73;;;0.60;;
80270;SDS011;69573;45.560;10.200;2023-08-06T13:27:25;0.50;;;0.50;;
80270;SDS011;69573;45.560;10.200;2023-08-06T13:29:51;0.60;;;0.60;;
80270;SDS011;69573;45.560;10.200;2023-08-06T13:32:17;1.42;;;0.60;;
80270;SDS011;69573;45.560;10.200;2023-08-06T13:34:44;0.77;;;0.77;;
80270;SDS011;69573;45.560;10.200;2023-08-06T13:37:11;0.60;;;0.50;;
80270;SDS011;69573;45.560;10.200;2023-08-06T13:39:37;1.90;;;0.73;;
80270;SDS011;69573;45.560;10.200;2023-08-06T13:42:03;0.60;;;0.57;;
80270;SDS011;69573;45.560;10.200;2023-08-06T13:44:30;0.40;;;0.40;;
80270;SDS011;69573;45.560;10.200;2023-08-06T13:47:00;1.65;;;0.70;;
80270;SDS011;69573;45.560;10.200;2023-08-06T13:49:26;0.95;;;0.50;;
80270;SDS011;69573;45.560;10.200;2023-08-06T13:51:52;0.50;;;0.50;;
80270;SDS011;69573;45.560;10.200;2023-08-06T13:54:19;0.52;;;0.50;;
80270;SDS011;69573;45.560;10.200;2023-08-06T13:56:46;1.38;;;0.50;;
80270;SDS011;69573;45.560;10.200;2023-08-06T13:59:12;0.32;;;0.32;;
80270;SDS011;69573;45.560;10.200;2023-08-06T14:01:39;0.50;;;0.50;;
80270;SDS011;69573;45.560;10.200;2023-08-06T14:04:05;0.50;;;0.50;;
80270;SDS011;69573;45.560;10.200;2023-08-06T14:06:32;1.67;;;0.60;;
80270;SDS011;69573;45.560;10.200;2023-08-06T14:08:58;1.17;;;0.38;;
80270;SDS011;69573;45.560;10.200;2023-08-06T14:11:24;1.15;;;0.43;;
80270;SDS011;69573;45.560;10.200;2023-08-06T14:13:51;0.60;;;0.50;;
80270;SDS011;69573;45.560;10.200;2023-08-06T14:16:18;0.38;;;0.38;;
80270;SDS011;69573;45.560;10.200;2023-08-06T14:18:44;0.40;;;0.40;;
80270;SDS011;69573;45.560;10.200;2023-08-06T14:21:13;2.78;;;0.50;;
80270;SDS011;69573;45.560;10.200;2023-08-06T14:23:39;1.08;;;0.40;;
80270;SDS011;69573;45.560;10.200;2023-08-06T14:26:07;2.75;;;0.40;;
80270;SDS011;69573;45.560;10.200;2023-08-06T14:28:36;1.00;;;0.35;;
80270;SDS011;69573;45.560;10.200;2023-08-06T14:31:02;0.35;;;0.32;;
80270;SDS011;69573;45.560;10.200;2023-08-06T14:33:29;0.40;;;0.40;;
80270;SDS011;69573;45.560;10.200;2023-08-06T14:35:56;0.60;;;0.60;;
80270;SDS011;69573;45.560;10.200;2023-08-06T14:38:22;0.38;;;0.30;;
80270;SDS011;69573;45.560;10.200;2023-08-06T14:40:49;0.75;;;0.38;;
80270;SDS011;69573;45.560;10.200;2023-08-06T14:43:16;0.32;;;0.30;;